createdAt,value
2018-07-25T00:00:34.309Z,12.30
2018-07-25T00:03:02.748Z,13.57
2018-07-25T00:05:31.300Z,13.07
2018-07-25T00:07:59.695Z,12.93
2018-07-25T00:10:33.373Z,11.93
2018-07-25T00:13:01.889Z,11.63
2018-07-25T00:15:30.331Z,13.60
2018-07-25T00:17:58.759Z,13.60
2018-07-25T00:20:27.211Z,18.30
2018-07-25T00:22:55.657Z,14.37
2018-07-25T00:25:23.802Z,15.80
2018-07-25T00:27:52.233Z,13.00
2018-07-25T00:30:20.766Z,13.93
2018-07-25T00:32:49.205Z,11.93
2018-07-25T00:35:17.614Z,11.00
2018-07-25T00:37:46.163Z,14.50
2018-07-25T00:40:14.610Z,11.43
2018-07-25T00:42:43.013Z,12.17
2018-07-25T00:45:11.766Z,10.70
2018-07-25T00:47:40.397Z,15.93
2018-07-25T00:50:09.186Z,15.73
2018-07-25T00:52:37.633Z,15.47
2018-07-25T00:55:06.151Z,20.23
2018-07-25T00:57:34.603Z,12.70
2018-07-25T01:00:03.024Z,20.20
2018-07-25T01:02:31.473Z,14.33
2018-07-25T01:05:00.189Z,14.57
2018-07-25T01:07:28.602Z,13.80
2018-07-25T01:09:56.984Z,14.60
2018-07-25T01:12:25.409Z,15.40
2018-07-25T01:14:53.796Z,14.10
2018-07-25T01:17:22.487Z,12.83
2018-07-25T01:19:50.985Z,16.77
2018-07-25T01:22:19.644Z,19.83
2018-07-25T01:24:48.048Z,13.97
2018-07-25T01:27:16.463Z,15.23
2018-07-25T01:29:44.872Z,16.03
2018-07-25T01:32:13.281Z,16.97
2018-07-25T01:34:41.668Z,16.80
2018-07-25T01:37:10.162Z,14.90
2018-07-25T01:39:38.597Z,16.77
2018-07-25T01:42:07.000Z,15.17
2018-07-25T01:44:35.408Z,13.83
2018-07-25T01:47:03.924Z,20.30
2018-07-25T01:49:32.368Z,18.93
2018-07-25T01:52:00.788Z,15.97
2018-07-25T01:54:29.211Z,15.60
2018-07-25T01:56:57.612Z,17.43
2018-07-25T01:59:28.100Z,13.73
2018-07-25T02:01:57.588Z,17.37
2018-07-25T02:04:26.369Z,18.47
2018-07-25T02:06:54.788Z,16.90
2018-07-25T02:09:22.879Z,15.13
2018-07-25T02:11:51.302Z,17.10
2018-07-25T02:14:20.081Z,23.30
2018-07-25T02:16:48.485Z,21.07
2018-07-25T02:19:16.915Z,14.57
2018-07-25T02:21:45.350Z,17.67
2018-07-25T02:24:13.736Z,15.00
2018-07-25T02:26:42.157Z,14.67
2018-07-25T02:29:10.567Z,18.20
2018-07-25T02:31:39.092Z,15.70
2018-07-25T02:34:12.831Z,17.00
2018-07-25T02:36:41.257Z,15.50
2018-07-25T02:39:11.740Z,15.87
2018-07-25T02:41:40.338Z,16.60
2018-07-25T02:44:08.794Z,16.70
2018-07-25T02:46:37.190Z,15.87
2018-07-25T02:49:05.765Z,18.93
2018-07-25T02:51:34.692Z,15.37
2018-07-25T02:54:03.549Z,19.03
2018-07-25T02:56:32.448Z,16.80
2018-07-25T02:59:01.131Z,23.03
2018-07-25T03:01:29.524Z,16.43
2018-07-25T03:03:57.971Z,16.10
2018-07-25T03:06:26.404Z,22.90
2018-07-25T03:08:54.859Z,20.57
2018-07-25T03:11:23.220Z,17.90
2018-07-25T03:13:51.644Z,20.63
2018-07-25T03:16:20.068Z,17.87
2018-07-25T03:18:48.474Z,20.43
2018-07-25T03:21:16.913Z,21.93
2018-07-25T03:23:45.427Z,19.23
2018-07-25T03:26:13.844Z,18.73
2018-07-25T03:28:42.248Z,19.23
2018-07-25T03:31:11.598Z,15.93
2018-07-25T03:33:39.992Z,18.90
2018-07-25T03:36:08.071Z,18.33
2018-07-25T03:38:36.461Z,18.73
2018-07-25T03:41:04.924Z,24.13
2018-07-25T03:43:33.319Z,19.73
2018-07-25T03:46:01.709Z,21.07
2018-07-25T03:48:30.124Z,18.37
2018-07-25T03:50:58.519Z,16.83
2018-07-25T03:53:26.936Z,16.90
2018-07-25T03:55:55.349Z,18.13
2018-07-25T03:58:23.816Z,26.47
2018-07-25T04:00:52.236Z,22.20
2018-07-25T04:03:20.633Z,18.83
2018-07-25T04:05:49.044Z,21.20
2018-07-25T04:08:17.527Z,20.43
2018-07-25T04:10:48.470Z,22.10
2018-07-25T04:13:17.689Z,37.40
2018-07-25T04:15:46.451Z,22.37
2018-07-25T04:18:15.052Z,27.20
2018-07-25T04:20:43.519Z,22.77
2018-07-25T04:23:12.119Z,22.73
2018-07-25T04:25:40.532Z,22.20
2018-07-25T04:28:08.943Z,20.47
2018-07-25T04:30:37.361Z,20.87
2018-07-25T04:33:05.780Z,21.37
2018-07-25T04:35:34.187Z,19.63
2018-07-25T04:38:02.963Z,23.40
2018-07-25T04:40:31.377Z,19.80
2018-07-25T04:42:59.809Z,24.00
2018-07-25T04:45:28.231Z,18.80
2018-07-25T04:47:56.644Z,19.00
2018-07-25T04:50:25.095Z,18.40
2018-07-25T04:52:53.520Z,16.93
2018-07-25T04:55:21.987Z,18.13
2018-07-25T04:57:50.384Z,22.53
2018-07-25T05:00:18.808Z,24.33
2018-07-25T05:02:47.215Z,18.30
2018-07-25T05:05:15.643Z,18.97
2018-07-25T05:07:44.072Z,25.53
2018-07-25T05:10:12.477Z,15.70
2018-07-25T05:12:40.969Z,17.30
2018-07-25T05:15:09.443Z,17.03
2018-07-25T05:17:37.856Z,15.50
2018-07-25T05:20:06.305Z,16.17
2018-07-25T05:22:34.836Z,21.23
2018-07-25T05:25:03.312Z,14.53
2018-07-25T05:27:31.733Z,19.00
2018-07-25T05:30:00.168Z,18.80
2018-07-25T05:32:28.728Z,14.63
2018-07-25T05:34:57.142Z,15.20
2018-07-25T05:37:25.595Z,20.13
2018-07-25T05:39:53.995Z,18.30
2018-07-25T05:42:22.432Z,14.17
2018-07-25T05:44:50.868Z,18.00
2018-07-25T05:47:19.292Z,17.10
2018-07-25T05:49:47.713Z,16.03
2018-07-25T05:52:16.145Z,20.37
2018-07-25T05:54:44.554Z,17.23
2018-07-25T05:57:13.036Z,15.83
2018-07-25T05:59:41.506Z,14.90
2018-07-25T06:02:10.248Z,19.20
2018-07-25T06:04:38.685Z,18.57
2018-07-25T06:07:07.101Z,18.77
2018-07-25T06:09:35.537Z,17.20
2018-07-25T06:12:04.177Z,15.97
2018-07-25T06:14:32.560Z,17.30
2018-07-25T06:17:00.957Z,17.93
2018-07-25T06:19:29.396Z,21.07
2018-07-25T06:21:57.628Z,19.93
2018-07-25T06:24:26.044Z,19.80
2018-07-25T06:26:54.151Z,18.50
2018-07-25T06:29:22.552Z,17.00
2018-07-25T06:31:51.162Z,17.27
2018-07-25T06:34:19.622Z,17.60
2018-07-25T06:36:48.020Z,23.03
2018-07-25T06:39:16.446Z,15.90
2018-07-25T06:41:44.832Z,15.77
2018-07-25T06:44:13.312Z,18.17
2018-07-25T06:46:41.704Z,20.40
2018-07-25T06:49:10.137Z,20.43
2018-07-25T06:51:38.704Z,17.67
2018-07-25T06:54:06.848Z,17.93
2018-07-25T06:56:35.253Z,16.60
2018-07-25T06:59:03.947Z,16.13
2018-07-25T07:01:32.376Z,21.37
2018-07-25T07:04:00.804Z,21.20
2018-07-25T07:06:28.921Z,16.00
2018-07-25T07:08:57.395Z,18.43
2018-07-25T07:11:25.832Z,18.37
2018-07-25T07:13:54.257Z,17.60
2018-07-25T07:16:22.652Z,19.70
2018-07-25T07:18:51.103Z,20.67
2018-07-25T07:21:19.501Z,17.03
2018-07-25T07:23:47.919Z,18.00
2018-07-25T07:26:16.679Z,23.90
2018-07-25T07:28:45.096Z,24.77
2018-07-25T07:31:13.573Z,19.40
2018-07-25T07:33:42.089Z,22.10
2018-07-25T07:36:10.566Z,16.30
2018-07-25T07:38:39.110Z,13.50
2018-07-25T07:41:07.848Z,21.63
2018-07-25T07:43:36.298Z,19.60
2018-07-25T07:46:04.752Z,18.13
2018-07-25T07:48:33.219Z,17.90
2018-07-25T07:51:01.658Z,22.47
2018-07-25T07:53:30.147Z,16.17
2018-07-25T07:55:58.553Z,15.03
2018-07-25T07:58:26.980Z,26.50
2018-07-25T08:00:55.469Z,15.00
2018-07-25T08:03:25.387Z,18.83
2018-07-25T08:05:53.813Z,17.83
2018-07-25T08:08:22.220Z,15.50
2018-07-25T08:10:50.773Z,16.60
2018-07-25T08:13:19.256Z,16.40
2018-07-25T08:15:47.711Z,14.60
2018-07-25T08:18:16.144Z,21.30
2018-07-25T08:20:44.399Z,15.60
2018-07-25T08:23:12.744Z,16.23
2018-07-25T08:25:41.247Z,20.73
2018-07-25T08:28:09.705Z,15.23
2018-07-25T08:30:38.105Z,14.10
2018-07-25T08:33:06.549Z,14.83
2018-07-25T08:35:34.954Z,16.00
2018-07-25T08:38:03.448Z,17.40
2018-07-25T08:40:31.900Z,17.03
2018-07-25T08:43:00.384Z,11.70
2018-07-25T08:45:28.815Z,14.40
2018-07-25T08:47:56.939Z,17.10
2018-07-25T08:50:25.356Z,17.63
2018-07-25T08:52:53.794Z,18.43
2018-07-25T08:55:22.204Z,15.37
2018-07-25T08:57:51.032Z,15.87
2018-07-25T09:00:19.551Z,15.63
2018-07-25T09:02:48.047Z,17.00
2018-07-25T09:05:16.592Z,13.10
2018-07-25T09:07:45.127Z,10.67
2018-07-25T09:10:13.223Z,14.60
2018-07-25T09:12:41.698Z,12.10
2018-07-25T09:15:10.067Z,17.10
2018-07-25T09:17:39.161Z,10.03
2018-07-25T09:20:07.710Z,15.83
2018-07-25T09:22:36.095Z,14.10
2018-07-25T09:25:05.639Z,10.27
2018-07-25T09:27:34.081Z,12.77
2018-07-25T09:30:02.505Z,8.90
2018-07-25T09:32:30.908Z,9.17
2018-07-25T09:34:59.315Z,7.93
2018-07-25T09:37:27.721Z,11.73
2018-07-25T09:39:56.164Z,14.20
2018-07-25T09:42:24.564Z,12.60
2018-07-25T09:44:52.992Z,12.70
2018-07-25T09:47:21.541Z,7.47
2018-07-25T09:49:49.956Z,16.40
2018-07-25T09:52:18.380Z,7.27
2018-07-25T09:54:46.853Z,7.90
2018-07-25T09:57:15.320Z,7.30
2018-07-25T09:59:43.722Z,7.73
2018-07-25T10:02:12.186Z,8.67
2018-07-25T10:04:40.653Z,6.83
2018-07-25T10:07:09.077Z,7.00
2018-07-25T10:09:37.625Z,12.30
2018-07-25T10:12:06.279Z,11.90
2018-07-25T10:14:34.709Z,10.50
2018-07-25T10:17:03.180Z,10.80
2018-07-25T10:19:31.655Z,9.27
2018-07-25T10:22:00.090Z,6.73
2018-07-25T10:24:28.613Z,6.50
2018-07-25T10:26:57.020Z,8.13
2018-07-25T10:29:25.540Z,10.67
2018-07-25T10:31:53.972Z,9.07
2018-07-25T10:34:22.398Z,7.30
2018-07-25T10:36:50.845Z,9.13
2018-07-25T10:39:19.268Z,8.60
2018-07-25T10:41:47.698Z,11.70
2018-07-25T10:44:16.124Z,8.43
2018-07-25T10:46:44.558Z,6.50
2018-07-25T10:49:12.979Z,6.70
2018-07-25T10:51:41.428Z,12.77
2018-07-25T10:54:10.036Z,10.50
2018-07-25T10:56:38.479Z,9.60
2018-07-25T10:59:07.126Z,6.40
2018-07-25T11:01:35.648Z,6.10
2018-07-25T11:04:04.164Z,7.27
2018-07-25T11:06:32.545Z,8.00
2018-07-25T11:09:00.960Z,9.88
2018-07-25T11:11:29.930Z,7.92
2018-07-25T11:13:59.954Z,6.10
2018-07-25T11:16:28.487Z,7.17
2018-07-25T11:18:56.784Z,6.20
2018-07-25T11:21:25.288Z,6.47
2018-07-25T11:23:53.726Z,7.93
2018-07-25T11:26:23.749Z,6.77
2018-07-25T11:28:52.137Z,7.37
2018-07-25T11:31:20.537Z,6.87
2018-07-25T11:33:48.938Z,7.43
2018-07-25T11:36:17.393Z,7.97
2018-07-25T11:38:45.798Z,8.30
2018-07-25T11:41:14.260Z,6.83
2018-07-25T11:43:42.728Z,5.60
2018-07-25T11:46:11.129Z,6.20
2018-07-25T11:48:39.536Z,9.90
2018-07-25T11:51:08.049Z,19.00
2018-07-25T11:53:36.449Z,7.30
2018-07-25T11:56:04.956Z,7.80
2018-07-25T11:58:33.453Z,7.10
2018-07-25T12:01:02.020Z,9.30
2018-07-25T12:03:30.409Z,11.17
2018-07-25T12:05:58.836Z,7.47
2018-07-25T12:08:27.298Z,10.70
2018-07-25T12:10:55.697Z,5.20
2018-07-25T12:13:24.156Z,7.70
2018-07-25T12:15:52.574Z,7.63
2018-07-25T12:18:21.021Z,8.20
2018-07-25T12:20:49.447Z,6.13
2018-07-25T12:23:17.876Z,6.70
2018-07-25T12:25:46.284Z,8.77
2018-07-25T12:28:14.709Z,6.77
2018-07-25T12:30:43.128Z,9.10
2018-07-25T12:33:11.536Z,6.87
2018-07-25T12:35:39.958Z,4.90
2018-07-25T12:38:08.427Z,11.17
2018-07-25T12:40:36.893Z,7.30
2018-07-25T12:43:05.393Z,7.73
2018-07-25T12:45:33.822Z,7.73
2018-07-25T12:48:02.408Z,8.17
2018-07-25T12:50:30.844Z,5.23
2018-07-25T12:52:59.344Z,10.30
2018-07-25T12:55:27.953Z,6.17
2018-07-25T12:57:56.396Z,5.37
2018-07-25T13:00:24.820Z,12.33
2018-07-25T13:02:53.293Z,10.33
2018-07-25T13:05:21.669Z,5.47
2018-07-25T13:07:50.109Z,11.80
2018-07-25T13:10:18.561Z,11.77
2018-07-25T13:12:46.968Z,6.27
2018-07-25T13:15:15.445Z,9.40
2018-07-25T13:17:43.876Z,8.63
2018-07-25T13:20:13.187Z,14.63
2018-07-25T13:22:41.718Z,8.70
2018-07-25T13:25:10.135Z,6.90
2018-07-25T13:27:38.633Z,7.97
2018-07-25T13:30:07.684Z,5.80
2018-07-25T13:32:36.127Z,5.90
2018-07-25T13:35:04.792Z,5.10
2018-07-25T13:37:33.217Z,9.80
2018-07-25T13:40:01.652Z,5.53
2018-07-25T13:42:30.185Z,6.17
2018-07-25T13:44:58.641Z,6.90
2018-07-25T13:47:27.082Z,8.00
2018-07-25T13:49:55.228Z,6.27
2018-07-25T13:52:23.654Z,7.40
2018-07-25T13:54:52.174Z,9.00
2018-07-25T13:57:20.600Z,10.20
2018-07-25T13:59:49.059Z,6.70
2018-07-25T14:02:17.468Z,7.67
2018-07-25T14:04:45.896Z,6.77
2018-07-25T14:07:14.328Z,5.80
2018-07-25T14:09:42.840Z,5.50
2018-07-25T14:12:11.334Z,7.53
2018-07-25T14:14:39.745Z,6.80
2018-07-25T14:17:08.204Z,11.40
2018-07-25T14:19:36.668Z,10.43
2018-07-25T14:22:05.138Z,6.90
2018-07-25T14:24:33.806Z,7.53
2018-07-25T14:27:02.242Z,6.10
2018-07-25T14:29:30.659Z,8.37
2018-07-25T14:31:59.050Z,7.47
2018-07-25T14:34:27.477Z,6.50
2018-07-25T14:36:55.937Z,10.10
2018-07-25T14:39:24.493Z,8.60
2018-07-25T14:41:53.105Z,9.37
2018-07-25T14:44:21.564Z,7.00
2018-07-25T14:46:50.081Z,7.23
2018-07-25T14:49:18.466Z,25.67
2018-07-25T14:51:46.897Z,14.53
2018-07-25T14:54:15.353Z,11.73
2018-07-25T14:56:43.606Z,23.77
2018-07-25T14:59:12.158Z,22.07
2018-07-25T15:01:40.682Z,16.53
2018-07-25T15:04:08.953Z,8.87
2018-07-25T15:06:37.484Z,15.73
2018-07-25T15:09:08.238Z,12.17
2018-07-25T15:11:36.707Z,13.90
2018-07-25T15:14:05.504Z,15.70
2018-07-25T15:16:34.080Z,13.77
2018-07-25T15:19:02.545Z,16.13
2018-07-25T15:21:31.018Z,16.47
2018-07-25T15:24:02.805Z,16.00
2018-07-25T15:26:31.249Z,18.83
2018-07-25T15:29:00.524Z,15.13
2018-07-25T15:31:29.000Z,12.83
2018-07-25T15:33:57.518Z,11.93
2018-07-25T15:36:42.856Z,13.43
2018-07-25T15:39:19.621Z,12.73
2018-07-25T15:41:48.523Z,11.83
2018-07-25T15:44:17.875Z,9.50
2018-07-25T15:46:46.365Z,12.30
2018-07-25T15:49:14.789Z,11.63
2018-07-25T15:51:43.265Z,9.30
2018-07-25T15:54:11.685Z,8.77
2018-07-25T15:56:40.949Z,9.27
2018-07-25T15:59:09.677Z,9.67
2018-07-25T16:01:38.160Z,9.63
2018-07-25T16:04:06.624Z,9.27
2018-07-25T16:06:35.229Z,7.47
2018-07-25T16:09:06.196Z,8.83
2018-07-25T16:11:34.344Z,8.20
2018-07-25T16:14:03.475Z,13.83
2018-07-25T16:16:31.908Z,10.00
2018-07-25T16:19:00.505Z,10.17
2018-07-25T16:21:28.969Z,12.67
2018-07-25T16:23:57.507Z,9.93
2018-07-25T16:26:25.936Z,6.53
2018-07-25T16:28:54.379Z,8.00
2018-07-25T16:31:22.935Z,8.10
2018-07-25T16:33:51.368Z,7.87
2018-07-25T16:36:19.804Z,6.57
2018-07-25T16:38:48.473Z,6.87
2018-07-25T16:41:16.935Z,6.60
2018-07-25T16:43:45.377Z,6.77
2018-07-25T16:46:13.808Z,10.33
2018-07-25T16:48:42.272Z,6.70
2018-07-25T16:51:10.739Z,6.20
2018-07-25T16:53:39.129Z,7.63
2018-07-25T16:56:07.652Z,5.73
2018-07-25T16:58:36.401Z,7.40
2018-07-25T17:01:04.865Z,7.67
2018-07-25T17:03:33.313Z,6.40
2018-07-25T17:06:01.835Z,6.83
2018-07-25T17:08:30.118Z,6.00
2018-07-25T17:10:58.570Z,8.03
2018-07-25T17:13:27.743Z,8.90
2018-07-25T17:15:56.268Z,5.83
2018-07-25T17:18:25.617Z,8.70
2018-07-25T17:20:54.107Z,6.13
2018-07-25T17:23:22.566Z,5.63
2018-07-25T17:25:51.280Z,6.37
2018-07-25T17:28:19.703Z,6.10
2018-07-25T17:30:48.111Z,5.30
2018-07-25T17:33:17.454Z,6.17
2018-07-25T17:35:46.072Z,7.10
2018-07-25T17:38:14.580Z,6.60
2018-07-25T17:40:43.199Z,6.27
2018-07-25T17:43:11.640Z,6.27
2018-07-25T17:45:40.193Z,8.10
2018-07-25T17:48:08.651Z,6.57
2018-07-25T17:50:37.157Z,6.77
2018-07-25T17:53:05.856Z,6.17
2018-07-25T17:55:34.428Z,7.93
2018-07-25T17:58:03.070Z,6.10
2018-07-25T18:00:31.620Z,10.70
2018-07-25T18:03:00.087Z,6.50
2018-07-25T18:05:28.537Z,8.30
2018-07-25T18:07:57.041Z,6.80
2018-07-25T18:10:25.497Z,6.17
2018-07-25T18:12:59.270Z,6.90
2018-07-25T18:15:27.700Z,9.40
2018-07-25T18:17:56.232Z,8.77
2018-07-25T18:20:24.699Z,6.60
2018-07-25T18:22:53.169Z,7.00
2018-07-25T18:25:21.601Z,5.57
2018-07-25T18:27:50.060Z,8.77
2018-07-25T18:30:18.748Z,7.93
2018-07-25T18:32:47.272Z,9.27
2018-07-25T18:35:15.746Z,10.37
2018-07-25T18:37:44.295Z,13.00
2018-07-25T18:40:12.872Z,8.93
2018-07-25T18:42:41.626Z,14.57
2018-07-25T18:45:10.515Z,12.97
2018-07-25T18:47:39.411Z,11.73
2018-07-25T18:50:09.321Z,14.10
2018-07-25T18:52:38.208Z,7.10
2018-07-25T18:55:06.797Z,13.67
2018-07-25T18:57:35.513Z,8.53
2018-07-25T19:00:04.861Z,10.47
2018-07-25T19:02:33.881Z,8.80
2018-07-25T19:05:02.358Z,9.30
2018-07-25T19:07:30.951Z,9.10
2018-07-25T19:09:59.721Z,10.10
2018-07-25T19:12:28.172Z,11.97
2018-07-25T19:15:01.892Z,8.53
2018-07-25T19:17:30.342Z,8.43
2018-07-25T19:19:58.751Z,11.10
2018-07-25T19:22:27.280Z,8.07
2018-07-25T19:24:56.132Z,17.20
2018-07-25T19:27:24.619Z,10.40
2018-07-25T19:29:53.401Z,7.53
2018-07-25T19:32:22.033Z,10.17
2018-07-25T19:34:51.061Z,10.57
2018-07-25T19:37:19.873Z,11.67
2018-07-25T19:39:48.653Z,13.90
2018-07-25T19:42:17.210Z,8.37
2018-07-25T19:44:45.611Z,8.17
2018-07-25T19:47:14.072Z,11.83
2018-07-25T19:49:42.572Z,8.93
2018-07-25T19:52:11.041Z,10.23
2018-07-25T19:54:39.591Z,7.67
2018-07-25T19:57:08.328Z,6.40
2018-07-25T19:59:37.112Z,7.47
2018-07-25T20:02:05.920Z,8.10
2018-07-25T20:04:34.684Z,7.70
2018-07-25T20:07:03.729Z,6.77
2018-07-25T20:09:32.564Z,6.40
2018-07-25T20:12:01.300Z,6.60
2018-07-25T20:14:35.130Z,7.90
2018-07-25T20:17:03.629Z,6.50
2018-07-25T20:19:32.090Z,6.67
2018-07-25T20:22:00.905Z,8.20
2018-07-25T20:24:29.692Z,6.60
2018-07-25T20:26:58.487Z,9.40
2018-07-25T20:29:27.369Z,6.53
2018-07-25T20:31:56.109Z,7.83
2018-07-25T20:34:24.841Z,9.47
2018-07-25T20:36:53.354Z,7.20
2018-07-25T20:39:22.034Z,10.00
2018-07-25T20:41:50.843Z,7.87
2018-07-25T20:44:20.167Z,7.50
2018-07-25T20:46:49.087Z,7.83
2018-07-25T20:49:17.572Z,7.57
2018-07-25T20:51:46.369Z,11.33
2018-07-25T20:54:14.629Z,10.80
2018-07-25T20:56:43.529Z,6.80
2018-07-25T20:59:12.306Z,6.73
2018-07-25T21:01:40.933Z,7.30
2018-07-25T21:04:09.520Z,8.00
2018-07-25T21:06:37.685Z,7.60
2018-07-25T21:09:07.821Z,7.57
2018-07-25T21:11:36.335Z,9.03
2018-07-25T21:14:05.087Z,7.70
2018-07-25T21:16:33.592Z,12.60
2018-07-25T21:19:01.992Z,7.27
2018-07-25T21:21:30.464Z,12.27
2018-07-25T21:23:59.054Z,10.23
2018-07-25T21:26:27.456Z,8.23
2018-07-25T21:28:55.891Z,11.30
2018-07-25T21:31:24.520Z,12.10
2018-07-25T21:33:52.944Z,9.07
2018-07-25T21:36:21.471Z,10.10
2018-07-25T21:38:50.037Z,8.67
2018-07-25T21:41:18.453Z,10.03
2018-07-25T21:43:46.836Z,10.33
2018-07-25T21:46:15.249Z,9.50
2018-07-25T21:48:43.673Z,9.57
2018-07-25T21:51:12.112Z,8.90
2018-07-25T21:53:40.601Z,8.27
2018-07-25T21:56:09.163Z,9.50
2018-07-25T21:58:37.687Z,8.27
2018-07-25T22:01:10.307Z,8.30
2018-07-25T22:03:39.208Z,10.33
2018-07-25T22:06:07.312Z,8.40
2018-07-25T22:08:35.822Z,7.80
2018-07-25T22:11:04.349Z,10.87
2018-07-25T22:13:33.062Z,8.97
2018-07-25T22:16:01.756Z,13.27
2018-07-25T22:18:30.260Z,9.63
2018-07-25T22:20:58.660Z,9.63
2018-07-25T22:23:27.168Z,8.70
2018-07-25T22:25:55.569Z,12.00
2018-07-25T22:28:23.965Z,9.23
2018-07-25T22:30:52.620Z,14.70
2018-07-25T22:33:21.023Z,8.93
2018-07-25T22:35:49.416Z,8.47
2018-07-25T22:38:18.008Z,10.17
2018-07-25T22:40:46.549Z,9.10
2018-07-25T22:43:15.037Z,8.63
2018-07-25T22:45:43.477Z,8.50
2018-07-25T22:48:11.913Z,9.00
2018-07-25T22:50:40.360Z,16.00
2018-07-25T22:53:08.748Z,9.40
2018-07-25T22:55:37.458Z,10.70
2018-07-25T22:58:06.182Z,13.23
2018-07-25T23:00:34.605Z,15.93
2018-07-25T23:03:03.011Z,9.70
2018-07-25T23:05:31.616Z,13.90
2018-07-25T23:08:00.029Z,11.47
2018-07-25T23:10:28.434Z,17.67
2018-07-25T23:12:56.981Z,11.40
2018-07-25T23:15:25.441Z,12.23
2018-07-25T23:17:53.832Z,14.73
2018-07-25T23:20:22.225Z,17.67
2018-07-25T23:22:55.697Z,13.00
2018-07-25T23:25:24.643Z,13.90
2018-07-25T23:27:54.348Z,14.10
2018-07-25T23:30:22.865Z,13.37
2018-07-25T23:32:51.699Z,11.93
2018-07-25T23:35:20.795Z,14.90
2018-07-25T23:37:49.908Z,12.07
2018-07-25T23:40:18.692Z,11.23
2018-07-25T23:42:47.648Z,12.40
2018-07-25T23:45:16.060Z,12.97
2018-07-25T23:47:44.447Z,11.87
2018-07-25T23:50:12.995Z,13.63
2018-07-25T23:52:41.451Z,12.20
2018-07-25T23:55:10.202Z,14.07
2018-07-25T23:57:38.641Z,11.80
